createdAt,value
2018-03-04T00:01:03.950Z,167.43
2018-03-04T00:03:34.365Z,159.27
2018-03-04T00:06:04.828Z,156.70
2018-03-04T00:08:35.013Z,165.03
2018-03-04T00:11:05.470Z,168.63
2018-03-04T00:13:35.918Z,166.07
2018-03-04T00:16:07.591Z,174.83
2018-03-04T00:18:38.113Z,176.03
2018-03-04T00:21:09.263Z,177.23
2018-03-04T00:23:39.762Z,190.90
2018-03-04T00:26:11.692Z,172.43
2018-03-04T00:28:42.495Z,175.07
2018-03-04T00:31:14.510Z,169.53
2018-03-04T00:33:46.036Z,189.67
2018-03-04T00:36:16.768Z,171.07
2018-03-04T00:38:47.489Z,176.03
2018-03-04T00:41:18.074Z,186.63
2018-03-04T00:43:49.773Z,171.10
2018-03-04T00:46:20.500Z,147.73
2018-03-04T00:48:52.148Z,164.90
2018-03-04T00:51:23.783Z,167.20
2018-03-04T00:53:54.373Z,182.43
2018-03-04T00:56:25.963Z,165.13
2018-03-04T00:58:56.486Z,152.83
2018-03-04T01:01:28.830Z,157.57
2018-03-04T01:04:01.947Z,156.20
2018-03-04T01:06:33.913Z,154.83
2018-03-04T01:09:05.278Z,158.07
2018-03-04T01:11:35.695Z,159.37
2018-03-04T01:14:06.924Z,161.10
2018-03-04T01:16:38.999Z,157.13
2018-03-04T01:19:09.866Z,148.37
2018-03-04T01:21:40.701Z,160.33
2018-03-04T01:24:12.228Z,157.40
2018-03-04T01:26:42.651Z,160.13
2018-03-04T01:29:13.751Z,162.53
2018-03-04T01:31:44.297Z,148.80
2018-03-04T01:34:14.558Z,163.97
2018-03-04T01:36:44.903Z,164.00
2018-03-04T01:39:15.357Z,159.47
2018-03-04T01:41:46.483Z,155.87
2018-03-04T01:44:16.787Z,166.03
2018-03-04T01:46:47.666Z,155.50
2018-03-04T01:49:18.485Z,156.43
2018-03-04T01:51:53.363Z,161.03
2018-03-04T01:54:24.956Z,160.33
2018-03-04T01:56:55.472Z,151.77
2018-03-04T01:59:26.750Z,162.70
2018-03-04T02:01:57.758Z,154.27
2018-03-04T02:04:28.947Z,165.10
2018-03-04T02:06:59.503Z,154.90
2018-03-04T02:09:30.089Z,159.07
2018-03-04T02:12:00.464Z,154.20
2018-03-04T02:14:31.419Z,162.77
2018-03-04T02:17:01.578Z,152.10
2018-03-04T02:19:32.542Z,155.80
2018-03-04T02:22:02.801Z,155.57
2018-03-04T02:24:33.522Z,156.17
2018-03-04T02:27:05.160Z,145.60
2018-03-04T02:29:37.015Z,152.73
2018-03-04T02:32:06.838Z,152.10
2018-03-04T02:34:37.453Z,158.57
2018-03-04T02:37:09.346Z,163.47
2018-03-04T02:39:40.351Z,158.67
2018-03-04T02:42:10.209Z,149.83
2018-03-04T02:44:40.728Z,160.40
2018-03-04T02:47:10.746Z,154.70
2018-03-04T02:49:40.837Z,150.40
2018-03-04T02:52:10.587Z,159.43
2018-03-04T02:54:40.459Z,160.57
2018-03-04T02:57:10.122Z,164.77
2018-03-04T02:59:40.832Z,165.57
2018-03-04T03:02:11.523Z,156.87
2018-03-04T03:04:41.758Z,166.97
2018-03-04T03:07:11.801Z,165.27
2018-03-04T03:09:42.294Z,178.57
2018-03-04T03:12:13.734Z,165.50
2018-03-04T03:14:44.317Z,176.67
2018-03-04T03:17:14.208Z,175.50
2018-03-04T03:19:43.892Z,177.37
2018-03-04T03:22:14.816Z,172.83
2018-03-04T03:24:44.547Z,177.87
2018-03-04T03:27:15.308Z,171.87
2018-03-04T03:29:45.928Z,193.27
2018-03-04T03:32:15.758Z,183.57
2018-03-04T03:34:46.327Z,185.00
2018-03-04T03:37:16.719Z,187.73
2018-03-04T03:39:46.624Z,186.87
2018-03-04T03:42:16.666Z,210.53
2018-03-04T03:44:47.996Z,190.10
2018-03-04T03:47:17.780Z,195.00
2018-03-04T03:49:47.582Z,195.73
2018-03-04T03:52:17.951Z,197.23
2018-03-04T03:54:47.623Z,191.77
2018-03-04T03:57:18.377Z,197.23
2018-03-04T03:59:48.216Z,191.00
2018-03-04T04:02:17.905Z,192.50
2018-03-04T04:04:47.640Z,182.37
2018-03-04T04:07:17.655Z,174.87
2018-03-04T04:09:48.758Z,180.67
2018-03-04T04:12:18.412Z,183.43
2018-03-04T04:14:48.532Z,186.63
2018-03-04T04:17:18.115Z,177.13
2018-03-04T04:19:49.782Z,179.33
2018-03-04T04:22:19.804Z,184.17
2018-03-04T04:24:49.384Z,192.43
2018-03-04T04:27:20.250Z,189.03
2018-03-04T04:29:50.060Z,176.47
2018-03-04T04:32:20.153Z,186.63
2018-03-04T04:34:51.414Z,187.60
2018-03-04T04:37:21.247Z,189.87
2018-03-04T04:39:50.861Z,202.37
2018-03-04T04:42:20.524Z,205.07
2018-03-04T04:44:50.761Z,204.13
2018-03-04T04:47:20.388Z,193.13
2018-03-04T04:49:50.520Z,206.23
2018-03-04T04:52:22.587Z,196.87
2018-03-04T04:54:52.504Z,190.37
2018-03-04T04:57:22.262Z,192.70
2018-03-04T04:59:51.987Z,191.63
2018-03-04T05:02:21.751Z,203.90
2018-03-04T05:04:51.442Z,199.17
2018-03-04T05:07:20.988Z,194.47
2018-03-04T05:09:50.703Z,209.27
2018-03-04T05:12:21.186Z,209.57
2018-03-04T05:14:51.117Z,188.50
2018-03-04T05:17:22.354Z,220.43
2018-03-04T05:19:52.270Z,216.20
2018-03-04T05:22:22.891Z,207.43
2018-03-04T05:24:52.664Z,215.00
2018-03-04T05:27:23.037Z,225.23
2018-03-04T05:29:55.087Z,213.60
2018-03-04T05:32:25.506Z,228.93
2018-03-04T05:34:56.017Z,230.67
2018-03-04T05:37:27.213Z,230.40
2018-03-04T05:39:56.870Z,242.17
2018-03-04T05:42:26.527Z,235.80
2018-03-04T05:44:56.421Z,242.63
2018-03-04T05:47:26.025Z,235.67
2018-03-04T05:49:55.634Z,248.27
2018-03-04T05:52:25.312Z,249.90
2018-03-04T05:54:54.842Z,251.37
2018-03-04T05:57:25.064Z,246.20
2018-03-04T05:59:56.235Z,251.73
2018-03-04T06:02:25.835Z,266.40
2018-03-04T06:04:55.594Z,240.70
2018-03-04T06:07:25.987Z,260.17
2018-03-04T06:09:55.494Z,244.47
2018-03-04T06:12:25.131Z,274.57
2018-03-04T06:14:55.601Z,270.90
2018-03-04T06:17:25.784Z,277.03
2018-03-04T06:19:55.874Z,292.80
2018-03-04T06:22:26.078Z,281.10
2018-03-04T06:24:55.960Z,290.73
2018-03-04T06:27:26.700Z,280.40
2018-03-04T06:29:57.550Z,290.63
2018-03-04T06:32:29.437Z,288.10
2018-03-04T06:34:59.201Z,307.33
2018-03-04T06:37:29.402Z,309.43
2018-03-04T06:40:00.082Z,314.07
2018-03-04T06:42:29.905Z,314.10
2018-03-04T06:45:00.189Z,308.73
2018-03-04T06:47:30.145Z,312.07
2018-03-04T06:50:00.232Z,316.77
2018-03-04T06:52:30.466Z,334.37
2018-03-04T06:55:01.499Z,313.77
2018-03-04T06:57:31.301Z,311.87
2018-03-04T07:00:01.350Z,335.07
2018-03-04T07:02:31.394Z,347.63
2018-03-04T07:05:02.348Z,343.83
2018-03-04T07:07:34.127Z,330.63
2018-03-04T07:10:05.688Z,340.30
2018-03-04T07:12:35.923Z,357.03
2018-03-04T07:15:06.939Z,355.27
2018-03-04T07:17:37.262Z,334.37
2018-03-04T07:20:08.646Z,354.87
2018-03-04T07:22:39.843Z,340.03
2018-03-04T07:25:10.287Z,388.20
2018-03-04T07:27:40.962Z,331.53
2018-03-04T07:30:11.393Z,359.30
2018-03-04T07:32:42.158Z,344.93
2018-03-04T07:35:13.646Z,315.03
2018-03-04T07:37:46.704Z,317.43
2018-03-04T07:40:17.389Z,328.63
2018-03-04T07:42:50.047Z,322.60
2018-03-04T07:45:20.742Z,324.67
2018-03-04T07:47:52.296Z,347.90
2018-03-04T07:50:24.243Z,297.67
2018-03-04T07:52:57.120Z,328.47
2018-03-04T07:55:28.099Z,304.13
2018-03-04T07:58:00.005Z,305.67
2018-03-04T08:00:31.479Z,318.53
2018-03-04T08:03:02.875Z,327.13
2018-03-04T08:05:33.583Z,327.60
2018-03-04T08:08:05.049Z,329.03
2018-03-04T08:10:36.481Z,321.87
2018-03-04T08:13:11.287Z,320.93
2018-03-04T08:15:42.940Z,324.17
2018-03-04T08:18:28.789Z,291.37
2018-03-04T08:20:59.448Z,326.80
2018-03-04T08:23:31.089Z,314.07
2018-03-04T08:26:11.420Z,311.03
2018-03-04T08:28:42.637Z,284.60
2018-03-04T08:31:14.377Z,287.73
2018-03-04T08:33:45.009Z,296.43
2018-03-04T08:36:16.580Z,329.60
2018-03-04T08:38:47.967Z,313.20
2018-03-04T08:41:19.605Z,310.07
2018-03-04T08:43:52.667Z,322.93
2018-03-04T08:46:23.601Z,314.87
2018-03-04T08:48:54.657Z,303.93
2018-03-04T08:51:25.249Z,316.70
2018-03-04T08:53:55.884Z,320.30
2018-03-04T08:56:26.311Z,303.43
2018-03-04T08:58:57.785Z,303.60
2018-03-04T09:01:28.439Z,293.50
2018-03-04T09:03:59.319Z,306.07
2018-03-04T09:06:29.758Z,299.97
2018-03-04T09:09:01.869Z,282.90
2018-03-04T09:11:32.354Z,272.13
2018-03-04T09:14:07.664Z,271.03
2018-03-04T09:16:39.018Z,223.23
2018-03-04T09:19:10.690Z,250.03
2018-03-04T09:21:41.283Z,238.60
2018-03-04T09:24:11.820Z,233.20
2018-03-04T09:26:42.428Z,252.27
2018-03-04T09:29:13.238Z,260.60
2018-03-04T09:31:45.332Z,247.83
2018-03-04T09:34:16.775Z,261.30
2018-03-04T09:36:48.111Z,246.47
2018-03-04T09:39:18.710Z,238.73
2018-03-04T09:41:49.314Z,239.17
2018-03-04T09:44:21.823Z,220.40
2018-03-04T09:46:52.453Z,223.30
2018-03-04T09:49:22.793Z,225.47
2018-03-04T09:51:53.371Z,237.00
2018-03-04T09:54:24.564Z,236.70
2018-03-04T09:56:55.188Z,222.50
2018-03-04T09:59:25.667Z,209.97
2018-03-04T10:01:56.166Z,250.10
2018-03-04T10:04:26.839Z,239.87
2018-03-04T10:06:58.134Z,256.20
2018-03-04T10:09:30.308Z,258.27
2018-03-04T10:12:00.796Z,255.27
2018-03-04T10:14:33.499Z,291.73
2018-03-04T10:17:04.006Z,273.93
2018-03-04T10:19:41.503Z,267.47
2018-03-04T10:34:50.396Z,195.73
2018-03-04T10:37:21.168Z,194.00
2018-03-04T10:39:51.693Z,183.87
2018-03-04T10:42:22.138Z,170.90
2018-03-04T10:44:52.678Z,169.27
2018-03-04T10:47:23.214Z,157.43
2018-03-04T10:49:53.871Z,161.17
2018-03-04T10:52:24.266Z,169.53
2018-03-04T10:54:54.431Z,166.73
2018-03-04T10:57:24.888Z,165.33
2018-03-04T10:59:55.581Z,164.37
2018-03-04T11:02:30.385Z,157.23
2018-03-04T11:05:01.361Z,174.27
2018-03-04T11:07:31.976Z,171.13
2018-03-04T11:10:02.982Z,167.40
2018-03-04T11:12:35.821Z,174.87
2018-03-04T11:15:06.372Z,160.00
2018-03-04T11:17:36.931Z,176.73
2018-03-04T11:20:07.523Z,176.63
2018-03-04T11:22:38.135Z,176.57
2018-03-04T11:25:08.704Z,173.93
2018-03-04T11:27:39.420Z,182.23
2018-03-04T11:30:10.094Z,196.87
2018-03-04T11:32:41.150Z,185.77
2018-03-04T11:35:11.935Z,210.93
2018-03-04T11:37:42.663Z,185.67
2018-03-04T11:40:14.227Z,186.97
2018-03-04T11:42:45.148Z,168.17
2018-03-04T11:45:16.098Z,176.13
2018-03-04T11:47:48.484Z,185.00
2018-03-04T11:50:19.457Z,196.40
2018-03-04T11:52:51.065Z,187.77
2018-03-04T11:55:21.887Z,178.43
2018-03-04T11:57:52.845Z,180.57
2018-03-04T12:00:23.711Z,179.53
2018-03-04T12:02:54.342Z,174.70
2018-03-04T12:05:25.406Z,173.17
2018-03-04T12:07:55.975Z,150.47
2018-03-04T12:10:26.723Z,149.13
2018-03-04T12:12:57.251Z,151.23
2018-03-04T12:15:27.933Z,156.17
2018-03-04T12:17:58.721Z,150.67
2018-03-04T12:20:29.602Z,129.20
2018-03-04T12:23:00.118Z,134.83
2018-03-04T12:25:31.135Z,139.30
2018-03-04T12:28:01.263Z,133.83
2018-03-04T12:30:32.905Z,126.30
2018-03-04T12:33:03.532Z,122.03
2018-03-04T12:38:39.556Z,113.73
2018-03-04T12:41:10.330Z,129.32
2018-03-04T12:43:47.242Z,119.90
2018-03-04T12:46:17.981Z,104.67
2018-03-04T12:48:48.493Z,106.00
2018-03-04T12:51:19.175Z,109.83
2018-03-04T12:53:49.971Z,119.75
2018-03-04T12:56:20.277Z,122.47
2018-03-04T12:58:51.611Z,127.33
2018-03-04T13:01:23.416Z,115.00
2018-03-04T13:03:54.367Z,104.30
2018-03-04T13:06:24.683Z,97.00
2018-03-04T13:08:55.742Z,102.93
2018-03-04T13:11:26.699Z,96.40
2018-03-04T13:13:57.829Z,100.10
2018-03-04T13:16:28.088Z,100.70
2018-03-04T13:18:58.421Z,98.10
2018-03-04T13:21:28.953Z,99.00
2018-03-04T13:23:58.824Z,94.47
2018-03-04T13:26:28.899Z,95.03
2018-03-04T13:28:59.817Z,93.07
2018-03-04T13:31:29.707Z,94.43
2018-03-04T13:33:59.631Z,93.23
2018-03-04T13:36:30.064Z,91.23
2018-03-04T13:38:59.986Z,92.03
2018-03-04T13:41:29.770Z,93.55
2018-03-04T13:43:59.419Z,87.77
2018-03-04T13:46:30.025Z,93.20
2018-03-04T13:49:00.123Z,95.97
2018-03-04T13:51:29.977Z,98.33
2018-03-04T13:53:59.950Z,96.77
2018-03-04T13:56:29.796Z,92.30
2018-03-04T13:59:04.384Z,99.35
2018-03-04T14:01:34.509Z,103.00
2018-03-04T14:04:06.196Z,96.17
2018-03-04T14:06:36.774Z,93.17
2018-03-04T14:09:08.153Z,93.77
2018-03-04T14:11:39.209Z,93.33
2018-03-04T14:20:51.552Z,87.93
2018-03-04T14:23:22.724Z,83.87
2018-03-04T14:25:53.513Z,88.20
2018-03-04T14:28:23.473Z,89.47
2018-03-04T14:30:53.735Z,88.17
2018-03-04T14:33:23.481Z,90.70
2018-03-04T14:35:53.430Z,87.03
2018-03-04T14:38:26.198Z,95.00
2018-03-04T14:40:57.280Z,97.20
2018-03-04T14:43:29.094Z,98.37
2018-03-04T14:46:00.259Z,95.33
2018-03-04T14:48:30.127Z,96.97
2018-03-04T14:51:00.549Z,101.17
2018-03-04T14:53:31.113Z,108.20
2018-03-04T14:56:01.754Z,101.97
2018-03-04T14:58:34.327Z,100.07
2018-03-04T15:01:05.712Z,104.90
2018-03-04T15:03:37.030Z,101.17
2018-03-04T15:06:09.621Z,104.13
2018-03-04T15:08:42.063Z,99.60
2018-03-04T15:11:13.277Z,98.37
2018-03-04T15:13:44.160Z,99.23
2018-03-04T15:16:15.686Z,105.03
2018-03-04T15:18:46.384Z,106.37
2018-03-04T15:21:18.906Z,103.77
2018-03-04T15:23:50.798Z,97.37
2018-03-04T15:26:23.306Z,106.20
2018-03-04T15:31:20.602Z,109.13
2018-03-04T15:33:52.792Z,101.77
2018-03-04T15:36:27.016Z,111.20
2018-03-04T15:39:00.297Z,97.80
2018-03-04T15:41:33.812Z,102.97
2018-03-04T15:44:05.416Z,101.23
2018-03-04T15:46:37.099Z,104.07
2018-03-04T15:49:08.382Z,107.53
2018-03-04T15:51:41.879Z,117.70
2018-03-04T15:54:14.569Z,104.77
2018-03-04T15:56:46.019Z,112.80
2018-03-04T15:59:18.307Z,119.17
2018-03-04T16:01:48.518Z,111.47
2018-03-04T16:04:19.500Z,108.00
2018-03-04T16:06:51.292Z,104.50
2018-03-04T16:09:26.588Z,110.33
2018-03-04T16:11:59.929Z,107.07
2018-03-04T16:14:32.336Z,120.87
2018-03-04T16:17:03.023Z,117.80
2018-03-04T16:19:35.833Z,111.97
2018-03-04T16:22:07.941Z,115.73
2018-03-04T16:24:40.705Z,111.67
2018-03-04T16:27:13.917Z,121.28
2018-03-04T16:29:57.254Z,111.60
2018-03-04T16:32:30.501Z,111.00
2018-03-04T16:35:03.965Z,113.87
2018-03-04T16:37:37.644Z,128.77
2018-03-04T16:40:12.127Z,126.03
2018-03-04T16:42:46.263Z,126.20
2018-03-04T16:45:21.574Z,118.97
2018-03-04T16:47:53.988Z,120.00
2018-03-04T16:50:27.083Z,125.90
2018-03-04T16:53:00.763Z,125.03
2018-03-04T16:55:34.099Z,137.20
2018-03-04T16:58:05.729Z,137.87
2018-03-04T17:00:37.483Z,128.77
2018-03-04T17:03:10.117Z,125.70
2018-03-04T17:05:43.072Z,127.90
2018-03-04T17:08:16.244Z,129.00
2018-03-04T17:10:47.928Z,121.37
2018-03-04T17:13:27.572Z,121.67
2018-03-04T17:15:59.643Z,132.83
2018-03-04T17:18:32.223Z,125.97
2018-03-04T17:21:07.239Z,129.43
2018-03-04T17:23:39.279Z,140.83
2018-03-04T17:26:12.595Z,133.77
2018-03-04T17:28:45.576Z,124.10
2018-03-04T17:31:16.656Z,128.63
2018-03-04T17:33:47.570Z,127.07
2018-03-04T17:36:19.644Z,123.80
2018-03-04T17:38:50.353Z,117.67
2018-03-04T17:41:21.380Z,116.57
2018-03-04T17:43:53.378Z,122.67
2018-03-04T17:46:25.418Z,132.33
2018-03-04T17:48:56.776Z,140.20
2018-03-04T17:51:27.499Z,125.90
2018-03-04T17:53:58.693Z,134.87
2018-03-04T17:56:30.379Z,138.87
2018-03-04T17:59:01.749Z,135.13
2018-03-04T18:01:33.462Z,138.00
2018-03-04T18:04:04.902Z,135.83
2018-03-04T18:06:36.004Z,133.60
2018-03-04T18:09:08.037Z,126.67
2018-03-04T18:11:38.566Z,119.90
2018-03-04T18:14:10.270Z,125.13
2018-03-04T18:16:43.117Z,129.57
2018-03-04T18:19:16.055Z,124.33
2018-03-04T18:21:47.578Z,129.57
2018-03-04T18:24:18.725Z,128.87
2018-03-04T18:26:50.374Z,125.47
2018-03-04T18:29:21.569Z,135.10
2018-03-04T18:31:53.899Z,139.17
2018-03-04T18:34:28.523Z,139.80
2018-03-04T18:37:02.350Z,138.27
2018-03-04T18:39:34.802Z,154.33
2018-03-04T18:42:08.031Z,129.53
2018-03-04T18:44:41.624Z,159.27
2018-03-04T18:47:18.204Z,147.50
2018-03-04T18:49:52.436Z,131.67
2018-03-04T18:52:24.458Z,151.37
2018-03-04T18:54:56.273Z,138.17
2018-03-04T18:57:27.430Z,129.30
2018-03-04T19:00:00.247Z,124.03
2018-03-04T19:02:32.129Z,139.60
2018-03-04T19:05:05.042Z,132.57
2018-03-04T19:07:38.233Z,137.37
2018-03-04T19:10:11.050Z,139.17
2018-03-04T19:12:44.578Z,134.07
2018-03-04T19:15:16.336Z,135.77
2018-03-04T19:17:47.314Z,152.63
2018-03-04T19:20:20.765Z,187.83
2018-03-04T19:22:54.899Z,152.57
2018-03-04T19:25:26.610Z,140.40
2018-03-04T19:27:58.076Z,163.47
2018-03-04T19:30:30.153Z,249.50
2018-03-04T19:33:03.208Z,176.53
2018-03-04T19:35:35.164Z,155.97
2018-03-04T19:38:07.996Z,140.97
2018-03-04T19:40:41.725Z,189.70
2018-03-04T19:43:14.412Z,187.83
2018-03-04T19:45:46.892Z,147.23
2018-03-04T19:48:21.491Z,163.63
2018-03-04T19:50:53.142Z,145.47
2018-03-04T19:53:26.727Z,151.17
2018-03-04T19:55:58.281Z,154.93
2018-03-04T19:58:30.031Z,147.10
2018-03-04T20:01:01.692Z,153.07
2018-03-04T20:03:35.631Z,181.93
2018-03-04T20:06:07.170Z,166.20
2018-03-04T20:08:42.314Z,163.97
2018-03-04T20:11:14.881Z,173.37
2018-03-04T20:13:47.134Z,164.20
2018-03-04T20:16:18.977Z,152.63
2018-03-04T20:18:50.656Z,177.90
2018-03-04T20:21:22.979Z,158.80
2018-03-04T20:23:56.129Z,166.30
2018-03-04T20:26:28.881Z,166.77
2018-03-04T20:28:59.729Z,156.10
2018-03-04T20:31:31.930Z,163.40
2018-03-04T20:34:03.276Z,159.30
2018-03-04T20:36:34.748Z,163.00
2018-03-04T20:39:07.082Z,153.00
2018-03-04T20:41:38.245Z,157.00
2018-03-04T20:44:09.969Z,146.30
2018-03-04T20:46:40.749Z,153.97
2018-03-04T20:49:14.777Z,157.03
2018-03-04T20:51:47.167Z,166.60
2018-03-04T20:54:19.993Z,148.13
2018-03-04T20:56:51.302Z,164.50
2018-03-04T20:59:21.812Z,158.43
2018-03-04T21:01:53.822Z,170.00
2018-03-04T21:04:25.437Z,386.77
2018-03-04T21:06:56.999Z,305.57
2018-03-04T21:09:27.878Z,206.47
2018-03-04T21:11:58.110Z,181.97
2018-03-04T21:14:29.316Z,157.13
2018-03-04T21:16:59.613Z,157.90
2018-03-04T21:19:31.203Z,177.30
2018-03-04T21:22:03.098Z,159.97
2018-03-04T21:24:33.281Z,172.90
2018-03-04T21:27:03.379Z,167.47
2018-03-04T21:29:33.561Z,165.30
2018-03-04T21:32:03.642Z,171.33
2018-03-04T21:34:33.676Z,160.93
2018-03-04T21:37:03.836Z,176.73
2018-03-04T21:39:33.855Z,165.33
2018-03-04T21:42:06.981Z,160.07
2018-03-04T21:44:37.242Z,179.87
2018-03-04T21:47:08.977Z,166.30
2018-03-04T21:49:40.533Z,178.97
2018-03-04T21:52:12.829Z,167.13
2018-03-04T21:54:43.806Z,179.20
2018-03-04T21:57:14.683Z,170.30
2018-03-04T21:59:46.761Z,170.43
2018-03-04T22:02:16.573Z,176.07
2018-03-04T22:04:50.618Z,238.10
2018-03-04T22:07:20.403Z,212.90
2018-03-04T22:09:50.274Z,202.33
2018-03-04T22:12:20.847Z,280.63
2018-03-04T22:14:50.810Z,187.13
2018-03-04T22:17:20.751Z,180.37
2018-03-04T22:19:52.039Z,171.20
2018-03-04T22:22:22.578Z,164.93
2018-03-04T22:24:52.882Z,172.13
2018-03-04T22:27:23.654Z,174.43
2018-03-04T22:29:54.618Z,161.90
2018-03-04T22:32:25.817Z,167.77
2018-03-04T22:34:56.934Z,180.43
2018-03-04T22:37:27.909Z,186.87
2018-03-04T22:39:58.494Z,174.37
2018-03-04T22:42:28.520Z,183.40
2018-03-04T22:44:58.471Z,188.60
2018-03-04T22:47:28.372Z,202.00
2018-03-04T22:49:59.077Z,177.77
2018-03-04T22:52:29.721Z,176.73
2018-03-04T22:54:59.836Z,185.83
2018-03-04T22:57:30.077Z,178.70
2018-03-04T22:59:59.888Z,178.43
2018-03-04T23:02:30.600Z,179.80
2018-03-04T23:05:00.817Z,187.90
2018-03-04T23:07:30.581Z,185.50
2018-03-04T23:10:00.368Z,188.63
2018-03-04T23:12:30.694Z,189.07
2018-03-04T23:15:00.459Z,205.90
2018-03-04T23:17:30.241Z,244.57
2018-03-04T23:19:59.956Z,245.63
2018-03-04T23:22:30.044Z,214.47
2018-03-04T23:24:59.932Z,232.03
2018-03-04T23:27:30.901Z,201.67
2018-03-04T23:30:00.802Z,155.00
2018-03-04T23:32:31.091Z,180.57
2018-03-04T23:35:01.492Z,203.20
2018-03-04T23:37:32.639Z,200.57
2018-03-04T23:40:03.280Z,177.80
2018-03-04T23:42:34.618Z,161.33
2018-03-04T23:45:04.687Z,198.07
2018-03-04T23:47:34.816Z,193.10
2018-03-04T23:50:04.959Z,198.40
2018-03-04T23:52:35.067Z,211.80
2018-03-04T23:55:06.474Z,216.07
2018-03-04T23:57:36.981Z,187.17
